Terminal Aerodrome Forecast
Issued by NWS

Home | Current Version | Previous Version | Text Only | Print | Product List | Glossary On
Versions: 1 2 3 4 5 6 7 8 9 10 11 12 13 14 15
000
FTUS44 KLIX 010803 AAA
TAFHDC
TAF AMD
KHDC 010803Z 0108/0206 13003KT P6SM SCT015 OVC070
     FM011100 VRB03KT P6SM BKN010
      TEMPO 0112/0116 VRB25KT 2SM TSRA BKN020CB
     FM011600 16010KT P6SM SHRA SCT035 BKN150
     FM020000 17010KT P6SM BKN050=

USA.gov is the U.S. government's official web portal to all federal, state and local government web resources and services.